Time;durP1;ratioP1;P1;durP2;ratioP2;P2;SDS_P1;SDS_P2;PMS_P1;PMS_P2;Temp;Humidity;BMP_temperature;BMP_pressure;BME280_temperature;BME280_humidity;BME280_pressure;Samples;Min_cycle;Max_cycle;Signal;HPM_P1;HPM_P2
2022/06/16 00:00:41;;;;;;;2.90;2.65;;;;;;;14.74;61.76;99519.95;1683080;84;20896;-74
2022/06/16 00:03:08;;;;;;;2.67;2.12;;;;;;;14.69;61.85;99518.38;1683517;85;21218;-73
2022/06/16 00:05:38;;;;;;;3.45;2.30;;;;;;;14.65;61.99;99519.27;1664490;85;21006;-74
2022/06/16 00:08:07;;;;;;;2.75;2.50;;;;;;;14.61;62.14;99510.48;1683008;84;21427;-73
2022/06/16 00:10:35;;;;;;;3.95;2.35;;;;;;;14.55;62.33;99508.07;1683194;83;21012;-76
2022/06/16 00:13:02;;;;;;;2.33;2.10;;;;;;;14.52;62.54;99510.33;1683621;85;21015;-74
2022/06/16 00:15:29;;;;;;;4.03;2.33;;;;;;;14.48;62.75;99508.55;1683412;85;21265;-75
2022/06/16 00:17:57;;;;;;;2.98;2.25;;;;;;;14.46;62.97;99507.09;1670237;83;21014;-76
2022/06/16 00:20:24;;;;;;;3.30;2.37;;;;;;;14.43;63.17;99508.30;1677409;83;21061;-74
2022/06/16 00:22:51;;;;;;;3.58;2.75;;;;;;;14.42;63.30;99509.81;1683351;83;21007;-73
2022/06/16 00:25:17;;;;;;;3.60;2.83;;;;;;;14.39;63.43;99513.70;1683789;83;21497;-75
2022/06/16 00:27:44;;;;;;;5.03;2.95;;;;;;;14.35;63.54;99511.63;1694525;83;21090;-74
2022/06/16 00:30:13;;;;;;;3.17;2.87;;;;;;;14.30;63.67;99514.85;1682790;84;20925;-73
2022/06/16 00:32:41;;;;;;;5.72;3.20;;;;;;;14.23;63.89;99513.98;1683572;84;21482;-75
2022/06/16 00:35:10;;;;;;;3.95;2.95;;;;;;;14.12;64.10;99516.66;1683608;85;20955;-74
2022/06/16 00:37:37;;;;;;;5.30;2.65;;;;;;;14.02;64.40;99521.50;1683584;85;20993;-76
2022/06/16 00:40:06;;;;;;;4.78;3.47;;;;;;;13.93;64.71;99519.13;1683086;84;21870;-73
2022/06/16 00:42:33;;;;;;;4.17;3.08;;;;;;;13.83;65.05;99518.61;1679767;83;21595;-74
2022/06/16 00:45:01;;;;;;;4.67;3.10;;;;;;;13.77;65.39;99512.68;1659689;86;21469;-74
2022/06/16 00:47:29;;;;;;;3.75;3.42;;;;;;;13.71;65.66;99512.95;1630737;87;21023;-73
2022/06/16 00:50:01;;;;;;;4.70;3.08;;;;;;;13.66;65.90;99510.00;1631065;87;21015;-75
2022/06/16 00:52:31;;;;;;;3.35;2.92;;;;;;;13.61;66.10;99513.24;1673496;84;21148;-74
2022/06/16 00:55:15;;;;;;;3.50;2.87;;;;;;;13.58;66.29;99518.16;1676529;85;20943;-74
2022/06/16 00:57:46;;;;;;;5.47;2.98;;;;;;;13.55;66.51;99519.36;1676920;84;20998;-75
2022/06/16 01:00:24;;;;;;;3.70;2.70;;;;;;;13.54;66.68;99511.02;1683422;83;21244;-75
2022/06/16 01:02:50;;;;;;;2.62;2.42;;;;;;;13.50;66.89;99515.06;1683477;85;20904;-74
2022/06/16 01:05:17;;;;;;;2.37;2.17;;;;;;;13.50;67.04;99512.92;1683464;85;21137;-74
2022/06/16 01:07:45;;;;;;;4.12;2.60;;;;;;;13.50;67.18;99518.27;1682432;84;20991;-74
2022/06/16 01:10:14;;;;;;;2.50;2.30;;;;;;;13.53;67.24;99511.21;1683710;83;21090;-74
2022/06/16 01:16:05;;;;;;;3.15;2.27;;;;;;;13.57;67.20;99506.63;1664199;85;21489;-73
2022/06/16 01:18:37;;;;;;;2.90;2.70;;;;;;;13.57;67.20;99504.46;1682728;83;21219;-74
2022/06/16 01:21:15;;;;;;;2.87;2.30;;;;;;;13.56;67.24;99500.12;1685877;85;21010;-73
2022/06/16 01:24:20;;;;;;;2.62;2.27;;;;;;;13.55;67.33;99498.48;1683703;85;20952;-74
2022/06/16 01:27:21;;;;;;;7.80;3.37;;;;;;;13.56;67.36;99502.79;1683648;83;20989;-73
2022/06/16 01:30:05;;;;;;;3.15;2.90;;;;;;;13.56;67.46;99503.63;1668969;85;21008;-74
2022/06/16 01:32:41;;;;;;;2.50;2.30;;;;;;;13.55;67.50;99501.98;1683743;85;21810;-74
2022/06/16 01:35:28;;;;;;;5.03;2.55;;;;;;;13.54;67.56;99497.65;1683755;85;21033;-74
2022/06/16 01:38:10;;;;;;;2.60;2.40;;;;;;;13.53;67.61;99502.66;1683251;84;21059;-73
2022/06/16 01:40:57;;;;;;;4.55;2.50;;;;;;;13.52;67.63;99491.67;1683798;83;20991;-74
2022/06/16 01:43:41;;;;;;;3.20;2.15;;;;;;;13.49;67.68;99496.05;1683662;85;21096;-74
2022/06/16 01:46:26;;;;;;;3.35;2.30;;;;;;;13.48;67.67;99491.71;1683756;83;21660;-74
2022/06/16 01:49:03;;;;;;;4.05;2.70;;;;;;;13.47;67.64;99492.75;1683759;83;20963;-73
2022/06/16 01:51:49;;;;;;;2.50;2.30;;;;;;;13.44;67.65;99493.12;1685921;84;21450;-75
2022/06/16 01:54:24;;;;;;;3.27;2.70;;;;;;;13.43;67.75;99498.63;1683861;85;20919;-74
2022/06/16 01:56:57;;;;;;;2.58;2.25;;;;;;;13.42;67.92;99491.15;1687114;83;21086;-74
2022/06/16 01:59:27;;;;;;;3.30;2.55;;;;;;;13.45;67.96;99492.61;1683675;85;21149;-74
2022/06/16 02:02:01;;;;;;;4.95;2.62;;;;;;;13.45;67.97;99493.95;1656934;85;21569;-74
2022/06/16 02:04:40;;;;;;;2.83;2.30;;;;;;;13.42;67.99;99499.17;1610870;88;20967;-75
2022/06/16 02:07:17;;;;;;;4.42;3.12;;;;;;;13.41;68.17;99500.67;1688814;85;21017;-74
2022/06/16 02:09:48;;;;;;;3.40;2.17;;;;;;;13.41;68.27;99504.17;1683905;85;20963;-75
2022/06/16 02:15:13;;;;;;;5.30;2.65;;;;;;;13.43;68.40;99515.50;1675451;85;20974;-74
2022/06/16 02:17:45;;;;;;;3.75;2.10;;;;;;;13.46;68.36;99525.82;1680782;83;21071;-74
2022/06/16 02:20:11;;;;;;;2.70;2.50;;;;;;;13.46;68.24;99519.14;1683703;83;21015;-73
2022/06/16 02:22:39;;;;;;;3.92;2.60;;;;;;;13.44;68.23;99528.36;1683637;85;21008;-74
2022/06/16 02:25:08;;;;;;;3.22;2.90;;;;;;;13.39;68.17;99530.77;1683252;84;21236;-74
2022/06/16 02:27:35;;;;;;;3.08;2.25;;;;;;;13.31;68.22;99527.70;1691011;83;20962;-76
2022/06/16 02:30:03;;;;;;;3.02;2.40;;;;;;;13.25;68.39;99526.26;1683388;84;21462;-74
2022/06/16 02:32:55;;;;;;;4.05;2.22;;;;;;;13.21;68.53;99531.16;1683543;85;20931;-74
2022/06/16 02:35:44;;;;;;;3.35;2.85;;;;;;;13.20;68.81;99526.83;1683706;85;20896;-75
2022/06/16 02:38:36;;;;;;;3.75;2.50;;;;;;;13.23;69.08;99529.13;1675365;84;22428;-73
2022/06/16 02:41:17;;;;;;;6.42;2.90;;;;;;;13.30;69.20;99535.87;1676941;83;20899;-73
2022/06/16 02:44:10;;;;;;;4.42;2.45;;;;;;;13.35;69.15;99527.63;1667036;85;20975;-74
2022/06/16 02:46:56;;;;;;;3.77;2.65;;;;;;;13.40;69.06;99534.58;1643587;84;21022;-74
2022/06/16 02:49:38;;;;;;;3.75;2.40;;;;;;;13.47;69.08;99536.01;1673681;85;20959;-75
2022/06/16 02:52:32;;;;;;;3.37;2.52;;;;;;;13.51;69.10;99538.11;1683591;85;21712;-74
2022/06/16 02:55:15;;;;;;;5.08;2.70;;;;;;;13.59;69.07;99533.99;1676622;85;20924;-74
2022/06/16 02:57:48;;;;;;;4.25;2.60;;;;;;;13.72;68.98;99535.15;1678041;83;20943;-74
2022/06/16 03:00:25;;;;;;;2.85;2.22;;;;;;;13.85;68.77;99535.29;1683360;84;20987;-74
2022/06/16 03:02:51;;;;;;;5.72;3.65;;;;;;;13.97;68.47;99531.12;1672544;84;20946;-74
2022/06/16 03:05:19;;;;;;;2.60;2.35;;;;;;;14.10;68.34;99535.26;1661203;84;20945;-72
2022/06/16 03:07:47;;;;;;;2.95;2.27;;;;;;;14.24;68.01;99541.03;1663720;84;21028;-74
2022/06/16 03:10:50;;;;;;;4.75;1.92;;;;;;;14.39;67.59;99535.66;1661038;84;21074;-74
2022/06/16 03:12:46;;;;;;;3.75;2.35;;;;;;;14.54;67.09;99533.20;1658927;84;20960;-73
2022/06/16 03:15:14;;;;;;;2.12;1.98;;;;;;;14.70;66.50;99538.25;1661454;84;21068;-73
2022/06/16 03:17:41;;;;;;;4.22;2.70;;;;;;;14.87;66.14;99531.25;1686071;84;21143;-75
2022/06/16 03:20:10;;;;;;;3.55;2.00;;;;;;;15.03;65.76;99533.12;1669974;84;21321;-75
2022/06/16 03:22:39;;;;;;;3.65;2.10;;;;;;;15.24;65.09;99533.54;1661293;84;20992;-73
2022/06/16 03:25:06;;;;;;;2.55;1.98;;;;;;;15.47;64.40;99535.42;1661255;84;21471;-73
2022/06/16 03:27:34;;;;;;;3.55;2.20;;;;;;;15.71;63.79;99535.41;1644779;85;21547;-73
2022/06/16 03:30:01;;;;;;;5.47;2.50;;;;;;;15.94;62.92;99534.54;1671824;84;21596;-74
2022/06/16 03:32:29;;;;;;;3.90;2.80;;;;;;;16.18;62.02;99533.14;1665908;84;20945;-73
2022/06/16 03:34:56;;;;;;;2.98;2.37;;;;;;;16.40;61.16;99524.67;1675646;84;20995;-74
2022/06/16 03:37:24;;;;;;;4.12;2.65;;;;;;;16.69;60.39;99528.83;1661952;84;20960;-73
2022/06/16 03:39:54;;;;;;;3.80;2.27;;;;;;;16.99;59.32;99528.70;1677347;84;20991;-75
2022/06/16 03:42:20;;;;;;;3.90;2.22;;;;;;;17.51;58.03;99520.14;1647570;84;21252;-74
2022/06/16 03:44:49;;;;;;;3.52;2.25;;;;;;;18.10;56.45;99519.31;1657042;84;20961;-75
2022/06/16 03:47:17;;;;;;;4.35;2.10;;;;;;;18.70;54.65;99517.83;1662673;84;21080;-75
2022/06/16 03:49:45;;;;;;;2.83;2.30;;;;;;;19.30;53.00;99514.80;1673019;84;21514;-74
2022/06/16 03:52:11;;;;;;;3.47;2.00;;;;;;;19.86;51.02;99512.36;1661271;84;21463;-75
2022/06/16 03:54:40;;;;;;;4.78;2.15;;;;;;;20.34;49.40;99509.05;1661154;84;21154;-75
2022/06/16 03:57:08;;;;;;;3.25;2.37;;;;;;;20.81;48.29;99505.33;1665517;84;20968;-76
2022/06/16 03:59:37;;;;;;;2.67;2.02;;;;;;;21.34;46.84;99505.17;1651572;84;21896;-75
2022/06/16 04:02:11;;;;;;;2.80;2.08;;;;;;;21.87;45.74;99498.67;1664435;85;21072;-75
2022/06/16 04:04:39;;;;;;;5.22;2.10;;;;;;;22.40;44.09;99497.70;1627788;88;20979;-75
2022/06/16 04:07:09;;;;;;;3.20;2.60;;;;;;;22.88;42.77;99501.20;1686950;83;20990;-75
2022/06/16 04:09:39;;;;;;;3.40;2.40;;;;;;;23.37;41.79;99497.25;1616581;88;21534;-75
2022/06/16 04:12:06;;;;;;;4.95;2.67;;;;;;;23.85;40.54;99498.64;1687655;83;21002;-75
2022/06/16 04:14:33;;;;;;;3.58;2.35;;;;;;;24.37;39.47;99497.54;1627629;87;21043;-76
2022/06/16 04:17:02;;;;;;;5.17;2.30;;;;;;;24.94;38.55;99496.34;1687003;83;21045;-75
2022/06/16 04:19:33;;;;;;;2.72;1.82;;;;;;;26.06;35.98;99497.08;1671512;85;21103;-75
2022/06/16 04:22:00;;;;;;;3.08;2.00;;;;;;;26.06;35.98;99497.08;1669989;85;20868;-75
2022/06/16 04:24:33;;;;;;;3.67;2.75;;;;;;;26.47;35.15;99496.58;1669631;86;20889;-74
2022/06/16 04:26:59;;;;;;;3.98;2.70;;;;;;;26.91;34.41;99496.28;1628368;86;21789;-75
2022/06/16 04:29:25;;;;;;;3.83;2.47;;;;;;;27.38;33.60;99501.34;1623253;87;21498;-75
2022/06/16 04:31:55;;;;;;;4.45;2.87;;;;;;;27.76;32.54;99495.73;1687360;83;21008;-75
2022/06/16 04:34:24;;;;;;;3.42;2.30;;;;;;;28.03;32.05;99496.95;1685415;85;21006;-74
2022/06/16 04:36:52;;;;;;;4.42;2.50;;;;;;;28.34;31.37;99498.13;1687275;85;20931;-74
2022/06/16 04:39:19;;;;;;;4.42;2.80;;;;;;;28.60;30.83;99496.23;1685072;85;20991;-73
2022/06/16 04:41:48;;;;;;;4.00;2.67;;;;;;;28.91;30.54;99494.07;1679094;83;20986;-74
2022/06/16 04:44:16;;;;;;;4.33;2.35;;;;;;;29.41;29.97;99493.27;1677319;85;21181;-74
2022/06/16 04:46:45;;;;;;;5.60;2.62;;;;;;;29.81;29.23;99487.27;1687035;85;20979;-74
2022/06/16 04:49:14;;;;;;;7.15;2.42;;;;;;;30.22;28.89;99487.49;1654802;86;20986;-74
2022/06/16 04:51:43;;;;;;;6.17;3.12;;;;;;;30.67;28.12;99485.92;1626854;88;21458;-74
2022/06/16 04:54:11;;;;;;;3.80;2.70;;;;;;;31.10;27.98;99483.23;1687432;85;20955;-74
2022/06/16 04:56:49;;;;;;;4.58;2.42;;;;;;;31.82;27.20;99488.89;1595349;88;22125;-75
2022/06/16 04:59:23;;;;;;;5.67;2.50;;;;;;;32.42;26.34;99483.91;1589772;89;20940;-74
2022/06/16 05:02:06;;;;;;;3.20;2.33;;;;;;;32.90;25.55;99478.80;1625976;87;20932;-74
2022/06/16 05:04:47;;;;;;;4.70;2.50;;;;;;;33.36;24.83;99480.31;1676067;84;20997;-75
2022/06/16 05:07:15;;;;;;;7.70;2.30;;;;;;;33.75;24.27;99477.52;1675177;85;20980;-74
2022/06/16 05:09:44;;;;;;;6.42;2.30;;;;;;;34.14;23.73;99472.45;1630034;88;21225;-74
2022/06/16 05:12:24;;;;;;;5.40;2.33;;;;;;;34.60;23.43;99471.75;1627239;86;21003;-74
2022/06/16 05:15:06;;;;;;;3.70;1.92;;;;;;;35.06;22.73;99470.44;1684996;83;20932;-74
2022/06/16 05:17:45;;;;;;;3.87;2.37;;;;;;;35.38;22.31;99464.02;1683206;84;20918;-75
2022/06/16 05:20:13;;;;;;;4.22;2.20;;;;;;;35.57;21.81;99464.41;1669169;84;20982;-74
2022/06/16 05:22:45;;;;;;;3.45;2.20;;;;;;;35.65;21.68;99471.84;1677724;84;21148;-75
2022/06/16 05:25:11;;;;;;;5.60;2.95;;;;;;;35.78;21.44;99466.63;1682880;83;20963;-76
2022/06/16 05:27:40;;;;;;;5.62;2.60;;;;;;;35.90;21.34;99469.48;1686924;83;20980;-72
2022/06/16 05:30:27;;;;;;;5.35;2.00;;;;;;;36.04;21.21;99465.88;1647624;85;21001;-72
2022/06/16 05:33:05;;;;;;;2.85;2.10;;;;;;;36.44;21.26;99463.39;1655716;85;21079;-72
2022/06/16 05:35:33;;;;;;;2.62;2.37;;;;;;;37.13;20.64;99467.05;1660268;83;21596;-72
2022/06/16 05:38:17;;;;;;;2.67;2.00;;;;;;;37.48;19.93;99466.03;1679599;84;20914;-72
2022/06/16 05:40:45;;;;;;;4.47;2.27;;;;;;;37.49;19.76;99463.47;1681823;83;21059;-75
2022/06/16 05:43:20;;;;;;;2.83;2.00;;;;;;;37.57;19.49;99460.37;1683478;83;20916;-70
2022/06/16 05:46:08;;;;;;;3.10;2.05;;;;;;;37.58;19.30;99471.68;1620811;87;21077;-69
2022/06/16 05:48:36;;;;;;;2.08;1.80;;;;;;;37.63;19.35;99463.93;1619792;87;21154;-70
2022/06/16 05:51:07;;;;;;;3.67;2.00;;;;;;;37.75;19.26;99463.69;1652678;85;21061;-70
2022/06/16 05:53:36;;;;;;;3.05;1.80;;;;;;;38.01;19.34;99464.92;1674801;85;21516;-69
2022/06/16 05:56:03;;;;;;;3.90;2.42;;;;;;;38.39;18.76;99467.80;1682119;83;21007;-68
2022/06/16 05:58:32;;;;;;;3.52;1.90;;;;;;;38.65;18.31;99460.59;1681443;84;21054;-71
2022/06/16 06:00:58;;;;;;;3.20;2.00;;;;;;;38.94;18.08;99467.73;1681893;84;21246;-70
2022/06/16 06:03:25;;;;;;;2.98;1.67;;;;;;;39.46;17.79;99458.52;1681573;84;20967;-71
2022/06/16 06:05:52;;;;;;;3.02;2.10;;;;;;;39.88;17.28;99458.70;1681643;84;20980;-72
2022/06/16 06:16:40;;;;;;;2.92;2.30;;;;;;;41.36;15.92;99459.95;1681631;84;21058;-73
2022/06/16 06:19:26;;;;;;;4.10;2.15;;;;;;;41.53;15.74;99458.84;1681472;84;21693;-71
2022/06/16 06:22:05;;;;;;;2.85;1.85;;;;;;;41.63;15.23;99454.59;1682594;84;21082;-69
2022/06/16 06:24:36;;;;;;;3.27;1.90;;;;;;;41.81;15.22;99454.27;1683004;84;21511;-75
2022/06/16 06:27:12;;;;;;;3.37;1.70;;;;;;;42.07;14.82;99446.42;1683639;83;21174;-70
2022/06/16 06:29:39;;;;;;;3.72;1.80;;;;;;;42.15;14.71;99457.34;1681515;84;21051;-73
2022/06/16 06:32:07;;;;;;;7.80;1.80;;;;;;;42.45;14.61;99456.67;1681974;84;20955;-71
2022/06/16 06:34:34;;;;;;;7.05;1.98;;;;;;;42.60;14.41;99459.66;1682572;84;20979;-69
2022/06/16 06:37:00;;;;;;;3.20;1.85;;;;;;;42.75;14.08;99462.81;1690390;83;21497;-70
2022/06/16 06:39:27;;;;;;;3.52;1.25;;;;;;;42.93;14.00;99454.83;1682149;84;21494;-70
2022/06/16 06:41:54;;;;;;;2.55;1.35;;;;;;;43.20;13.52;99454.05;1683030;83;21137;-72
2022/06/16 06:44:20;;;;;;;3.75;1.70;;;;;;;43.33;13.23;99455.97;1682437;84;21487;-70
2022/06/16 06:46:47;;;;;;;2.75;1.60;;;;;;;43.20;13.25;99449.85;1682434;84;20906;-74
2022/06/16 06:49:13;;;;;;;4.70;1.72;;;;;;;43.15;13.25;99451.62;1683297;84;21034;-72
2022/06/16 06:51:41;;;;;;;4.35;1.40;;;;;;;42.99;13.32;99447.69;1682194;84;21250;-71
2022/06/16 06:54:08;;;;;;;2.20;1.27;;;;;;;42.96;13.28;99446.25;1682846;84;21040;-72
2022/06/16 06:56:34;;;;;;;3.87;1.20;;;;;;;43.07;13.10;99439.34;1683094;83;21029;-71
2022/06/16 06:59:05;;;;;;;1.92;1.20;;;;;;;43.16;12.89;99438.41;1682853;84;20987;-73
2022/06/16 07:01:32;;;;;;;4.17;1.35;;;;;;;42.26;13.20;99444.89;1682379;84;20956;-70
2022/06/16 07:03:58;;;;;;;2.05;1.17;;;;;;;41.05;14.07;99449.87;1682519;83;21128;-73
2022/06/16 07:06:25;;;;;;;3.72;1.17;;;;;;;40.41;14.58;99445.09;1682326;84;20911;-74
2022/06/16 07:08:51;;;;;;;2.42;1.62;;;;;;;39.18;15.35;99435.60;1682088;84;20991;-73
2022/06/16 07:11:18;;;;;;;2.37;1.90;;;;;;;39.30;15.74;99434.67;1683039;83;20951;-74
2022/06/16 07:13:44;;;;;;;6.40;1.85;;;;;;;39.00;15.91;99437.11;1682240;84;21043;-75
2022/06/16 07:16:11;;;;;;;2.85;1.10;;;;;;;37.78;16.86;99436.63;1682087;84;21251;-73
2022/06/16 07:18:38;;;;;;;1.72;1.02;;;;;;;36.25;17.43;99444.52;1682013;84;21567;-73
2022/06/16 07:21:05;;;;;;;1.17;1.00;;;;;;;34.67;18.45;99445.28;1682092;84;21576;-72
2022/06/16 07:23:31;;;;;;;1.57;0.95;;;;;;;33.35;19.62;99450.55;1682294;84;20984;-74
2022/06/16 07:25:58;;;;;;;1.77;1.20;;;;;;;32.16;20.83;99450.14;1683350;83;21548;-74
2022/06/16 07:28:25;;;;;;;2.47;0.90;;;;;;;31.24;22.00;99445.56;1682689;84;21259;-74
2022/06/16 07:30:52;;;;;;;1.40;1.07;;;;;;;31.00;23.07;99451.84;1682045;84;20936;-74
2022/06/16 07:33:19;;;;;;;1.98;1.20;;;;;;;32.46;21.89;99446.39;1682124;84;20932;-74
2022/06/16 07:35:46;;;;;;;5.45;1.30;;;;;;;33.79;20.33;99430.80;1682041;84;20948;-74
2022/06/16 07:38:13;;;;;;;2.05;1.37;;;;;;;34.86;19.65;99439.93;1682200;84;21474;-74
2022/06/16 07:40:40;;;;;;;2.27;0.93;;;;;;;36.02;18.53;99432.20;1679209;83;21246;-75
2022/06/16 07:43:08;;;;;;;1.22;1.10;;;;;;;37.26;17.59;99430.41;1659377;85;21006;-74
2022/06/16 07:45:37;;;;;;;1.02;0.75;;;;;;;38.68;16.45;99431.27;1683708;85;20963;-73
2022/06/16 07:48:05;;;;;;;3.30;1.10;;;;;;;39.97;14.70;99425.86;1683589;85;20959;-74
2022/06/16 07:50:33;;;;;;;1.77;0.95;;;;;;;41.10;13.97;99428.05;1683704;85;20947;-74
2022/06/16 07:53:00;;;;;;;1.77;0.75;;;;;;;41.10;13.85;99423.86;1683426;85;21160;-74
2022/06/16 07:55:27;;;;;;;1.92;1.10;;;;;;;39.67;14.34;99429.58;1683736;83;20987;-74
2022/06/16 07:57:53;;;;;;;4.15;1.10;;;;;;;37.90;15.55;99435.22;1687228;83;20964;-74
2022/06/16 08:00:24;;;;;;;0.82;0.80;;;;;;;36.22;16.84;99433.30;1683778;85;20911;-74
2022/06/16 08:02:51;;;;;;;2.65;1.10;;;;;;;35.18;17.94;99435.16;1680704;85;21089;-74
2022/06/16 08:05:19;;;;;;;3.60;1.10;;;;;;;35.74;18.02;99432.48;1670067;86;21654;-72
2022/06/16 08:07:45;;;;;;;1.15;1.02;;;;;;;37.08;17.05;99427.64;1670081;86;20964;-74
2022/06/16 08:10:20;;;;;;;2.72;0.90;;;;;;;38.37;16.09;99425.67;1670334;84;20888;-76
2022/06/16 08:12:46;;;;;;;1.85;1.00;;;;;;;39.61;14.98;99422.06;1613722;88;20979;-73
2022/06/16 08:15:13;;;;;;;4.10;1.30;;;;;;;40.73;13.70;99418.61;1687511;85;21492;-75
2022/06/16 08:17:43;;;;;;;1.98;1.17;;;;;;;41.78;13.29;99415.34;1687431;85;21552;-82
2022/06/16 08:20:09;;;;;;;1.50;1.07;;;;;;;41.69;12.78;99417.56;1687512;85;21505;-74
2022/06/16 08:22:37;;;;;;;2.12;1.20;;;;;;;39.81;13.78;99426.54;1609785;88;21059;-74
2022/06/16 08:25:06;;;;;;;2.10;1.12;;;;;;;37.72;15.03;99427.73;1687600;85;21054;-73
2022/06/16 08:27:35;;;;;;;1.90;1.20;;;;;;;35.93;16.55;99430.03;1627969;86;21013;-73
2022/06/16 08:30:05;;;;;;;2.37;1.02;;;;;;;34.38;17.63;99432.72;1687495;85;21254;-73
2022/06/16 08:32:31;;;;;;;2.72;1.35;;;;;;;33.04;19.20;99435.17;1602652;88;20892;-73
2022/06/16 08:34:58;;;;;;;1.87;1.55;;;;;;;32.10;20.44;99434.88;1687492;85;21054;-75
2022/06/16 08:37:25;;;;;;;2.12;1.20;;;;;;;31.28;21.41;99439.73;1627762;87;21075;-73
2022/06/16 08:39:52;;;;;;;1.92;1.20;;;;;;;30.54;22.16;99432.07;1687526;85;21006;-74
2022/06/16 08:42:39;;;;;;;2.52;1.00;;;;;;;29.85;23.06;99436.22;1614807;86;21351;-73
2022/06/16 08:45:36;;;;;;;6.03;4.33;;;;;;;29.32;23.64;99436.92;1686566;85;21485;-74
2022/06/16 08:48:30;;;;;;;5.05;1.47;;;;;;;29.17;24.08;99440.66;1627770;87;21072;-74
2022/06/16 08:51:11;;;;;;;2.30;0.98;;;;;;;31.39;22.29;99433.45;1672906;84;20996;-74
2022/06/16 08:54:16;;;;;;;2.90;1.07;;;;;;;33.88;20.00;99424.13;1652419;83;21410;-74
2022/06/16 08:57:14;;;;;;;1.27;0.90;;;;;;;33.99;19.45;99424.05;1618984;86;21897;-73
2022/06/16 08:59:47;;;;;;;3.75;1.17;;;;;;;32.51;20.84;99433.30;1687576;85;21540;-73
2022/06/16 09:02:49;;;;;;;3.52;1.00;;;;;;;31.44;22.37;99433.34;1610083;88;20939;-74
2022/06/16 09:05:24;;;;;;;4.12;1.10;;;;;;;30.82;23.34;99430.16;1687440;85;21022;-73
2022/06/16 09:08:19;;;;;;;3.37;1.20;;;;;;;30.20;23.95;99426.05;1627996;87;20956;-74
2022/06/16 09:11:07;;;;;;;1.75;0.90;;;;;;;31.04;23.88;99422.64;1687769;83;21202;-74
2022/06/16 09:13:44;;;;;;;2.20;1.20;;;;;;;33.67;20.70;99406.59;1627686;87;21528;-75
2022/06/16 09:16:53;;;;;;;2.90;0.90;;;;;;;36.06;18.21;99411.58;1687462;84;20955;-73
2022/06/16 09:19:31;;;;;;;1.42;0.85;;;;;;;37.98;16.36;99408.70;1627692;88;20956;-71
2022/06/16 09:22:37;;;;;;;1.60;0.90;;;;;;;39.78;14.66;99401.39;1687459;85;21082;-74
2022/06/16 09:25:36;;;;;;;1.50;0.70;;;;;;;41.01;13.89;99396.83;1666584;85;21299;-74
2022/06/16 09:28:31;;;;;;;2.25;0.80;;;;;;;42.24;12.91;99393.55;1623103;86;21031;-73
2022/06/16 09:30:56;;;;;;;1.57;1.15;;;;;;;42.58;12.56;99401.94;1687692;83;21011;-74
2022/06/16 09:33:28;;;;;;;1.27;0.75;;;;;;;42.56;12.51;99400.09;1627891;86;20947;-74
2022/06/16 09:36:03;;;;;;;1.47;0.90;;;;;;;42.96;12.62;99396.70;1687691;84;20995;-73
2022/06/16 09:38:41;;;;;;;1.27;0.80;;;;;;;42.80;12.33;99396.72;1627953;88;21251;-73
2022/06/16 09:44:12;;;;;;;1.85;0.72;;;;;;;38.63;14.46;99415.68;1657872;86;21545;-72
2022/06/16 09:46:43;;;;;;;1.00;0.80;;;;;;;36.53;16.09;99415.66;1670188;85;20924;-72
2022/06/16 09:49:20;;;;;;;4.50;1.10;;;;;;;35.03;17.08;99413.02;1669300;86;20916;-74
2022/06/16 09:52:01;;;;;;;1.62;1.32;;;;;;;33.75;18.12;99410.49;1627935;88;21315;-73
2022/06/16 09:54:43;;;;;;;1.72;1.00;;;;;;;32.55;19.27;99417.80;1687444;84;20911;-73
2022/06/16 09:57:21;;;;;;;1.57;1.20;;;;;;;31.58;20.65;99417.09;1625817;86;21105;-75
2022/06/16 09:59:56;;;;;;;3.62;1.10;;;;;;;30.91;21.72;99413.28;1687607;85;21066;-73
2022/06/16 10:02:26;;;;;;;3.15;1.27;;;;;;;30.57;22.75;99415.55;1680125;85;20943;-73
2022/06/16 10:04:54;;;;;;;2.33;1.10;;;;;;;30.58;23.06;99413.63;1630772;85;21295;-73
2022/06/16 10:07:29;;;;;;;1.65;1.07;;;;;;;30.61;22.52;99404.20;1688300;85;20907;-73
2022/06/16 10:10:22;;;;;;;1.83;0.90;;;;;;;30.42;22.70;99411.16;1688798;85;20983;-73
2022/06/16 10:13:17;;;;;;;1.92;0.90;;;;;;;30.19;22.96;99412.64;1669584;85;20884;-75
2022/06/16 10:15:53;;;;;;;2.17;1.20;;;;;;;30.15;22.57;99408.30;1683590;83;20912;-74
2022/06/16 10:18:22;;;;;;;1.22;1.00;;;;;;;30.15;22.52;99407.48;1683870;85;21872;-74
2022/06/16 10:20:48;;;;;;;2.70;0.98;;;;;;;30.06;23.01;99408.71;1683559;85;20991;-75
2022/06/16 10:23:23;;;;;;;1.60;0.93;;;;;;;30.08;22.96;99402.95;1683606;85;20923;-72
2022/06/16 10:25:56;;;;;;;1.40;0.93;;;;;;;30.06;23.02;99405.18;1683736;83;20927;-72
2022/06/16 10:29:04;;;;;;;1.47;1.15;;;;;;;30.02;22.87;99405.50;1660648;85;20943;-74
2022/06/16 10:31:45;;;;;;;1.90;0.82;;;;;;;30.00;22.58;99411.30;1645388;86;21256;-74
2022/06/16 10:34:39;;;;;;;2.08;0.65;;;;;;;29.70;22.57;99404.86;1631719;88;20971;-74
2022/06/16 10:37:25;;;;;;;1.27;0.88;;;;;;;29.53;23.52;99403.21;1689018;85;20943;-74
2022/06/16 10:40:07;;;;;;;0.95;0.68;;;;;;;29.36;23.87;99393.56;1683611;85;20872;-73
2022/06/16 10:42:43;;;;;;;1.02;0.93;;;;;;;29.19;24.60;99397.89;1683896;83;20911;-73
2022/06/16 10:45:18;;;;;;;1.30;0.90;;;;;;;29.07;24.51;99409.83;1682999;85;21189;-73
2022/06/16 10:48:02;;;;;;;1.92;0.90;;;;;;;28.82;25.23;99406.00;1683373;85;21002;-72
2022/06/16 10:50:35;;;;;;;1.25;0.80;;;;;;;28.85;25.55;99402.14;1666850;85;20907;-74
2022/06/16 10:53:14;;;;;;;1.75;0.98;;;;;;;28.98;25.29;99401.98;1683549;85;20884;-73
2022/06/16 10:55:43;;;;;;;1.35;0.88;;;;;;;29.00;24.98;99399.22;1683576;83;21047;-73
2022/06/16 10:58:24;;;;;;;2.20;1.00;;;;;;;29.02;24.84;99400.31;1683568;83;21449;-75
2022/06/16 11:01:16;;;;;;;2.37;0.78;;;;;;;28.90;24.65;99408.10;1683552;85;20892;-74
2022/06/16 11:03:52;;;;;;;1.57;0.78;;;;;;;28.75;24.22;99395.41;1681459;85;20972;-73
2022/06/16 11:06:22;;;;;;;1.72;0.90;;;;;;;28.63;24.81;99401.82;1627817;88;20967;-74
2022/06/16 11:09:03;;;;;;;0.98;0.70;;;;;;;28.56;24.83;99400.78;1687572;84;20990;-72
2022/06/16 11:11:43;;;;;;;0.90;0.60;;;;;;;28.53;24.74;99395.06;1604919;88;21256;-75
2022/06/16 11:14:14;;;;;;;1.45;0.93;;;;;;;28.57;24.54;99396.12;1668839;85;21471;-73
2022/06/16 11:16:51;;;;;;;1.65;0.80;;;;;;;28.63;24.34;99401.28;1627622;87;21034;-72
2022/06/16 11:19:29;;;;;;;1.75;0.70;;;;;;;28.59;24.15;99402.12;1687570;85;21038;-73
2022/06/16 11:21:56;;;;;;;1.12;0.60;;;;;;;28.47;24.39;99396.23;1624986;88;21553;-73
2022/06/16 11:24:30;;;;;;;0.70;0.70;;;;;;;28.37;24.93;99390.84;1687638;85;21126;-74
2022/06/16 11:27:09;;;;;;;1.27;0.90;;;;;;;28.34;24.63;99401.80;1656212;85;21509;-72
2022/06/16 11:29:36;;;;;;;0.78;0.70;;;;;;;28.31;24.37;99396.11;1655970;85;21538;-73
2022/06/16 11:32:23;;;;;;;1.20;0.80;;;;;;;28.11;24.77;99397.91;1627879;88;20983;-75
2022/06/16 11:34:51;;;;;;;0.50;0.50;;;;;;;27.90;24.96;99391.48;1672109;85;20936;-73
2022/06/16 11:37:50;;;;;;;2.22;1.10;;;;;;;27.67;24.86;99391.66;1655964;86;21529;-71
2022/06/16 11:40:43;;;;;;;0.88;0.80;;;;;;;27.53;24.87;99392.05;1627645;88;21524;-72
2022/06/16 11:43:56;;;;;;;1.98;0.95;;;;;;;27.40;24.99;99394.83;1664304;85;20915;-74
2022/06/16 11:46:33;;;;;;;4.42;0.90;;;;;;;27.30;25.37;99395.40;1627820;88;20985;-73
2022/06/16 11:49:39;;;;;;;2.12;0.90;;;;;;;27.16;25.83;99399.85;1687640;85;20931;-74
2022/06/16 11:52:20;;;;;;;1.92;1.00;;;;;;;26.96;26.08;99398.83;1610885;88;21944;-75
2022/06/16 11:55:26;;;;;;;2.02;0.80;;;;;;;26.77;26.63;99397.83;1687488;85;21516;-73
2022/06/16 11:58:04;;;;;;;0.82;0.60;;;;;;;26.77;26.44;99390.18;1621121;86;20892;-71
2022/06/16 12:00:35;;;;;;;0.88;0.80;;;;;;;26.83;26.81;99393.14;1687051;85;20951;-73
2022/06/16 12:03:14;;;;;;;1.10;0.75;;;;;;;26.92;25.64;99395.04;1627946;87;20920;-74
2022/06/16 12:06:06;;;;;;;1.70;1.25;;;;;;;26.92;25.32;99393.67;1676376;84;21166;-74
2022/06/16 12:09:02;;;;;;;1.57;0.98;;;;;;;26.89;25.65;99391.50;1686138;84;20936;-73
2022/06/16 12:11:43;;;;;;;1.40;0.80;;;;;;;26.88;25.66;99389.06;1628567;86;21028;-74
2022/06/16 12:14:50;;;;;;;0.85;0.82;;;;;;;26.85;25.36;99389.03;1686046;85;21530;-73
2022/06/16 12:17:47;;;;;;;0.95;0.60;;;;;;;26.71;25.34;99378.43;1627868;87;21011;-74
2022/06/16 12:20:22;;;;;;;1.85;0.62;;;;;;;26.63;25.47;99380.36;1686114;85;21272;-73
2022/06/16 12:23:09;;;;;;;1.27;0.62;;;;;;;26.55;26.05;99374.10;1668679;86;21507;-73
2022/06/16 12:26:03;;;;;;;2.22;0.90;;;;;;;26.48;26.38;99370.86;1669194;84;21000;-73